createdAt,value
2022-08-05T00:08:32.881Z,12.30
2022-08-05T00:18:38.397Z,12.80
2022-08-05T00:28:45.925Z,12.00
2022-08-05T00:38:53.564Z,10.70
2022-08-05T00:49:01.048Z,11.70
2022-08-05T00:59:08.889Z,10.50
2022-08-05T01:09:19.848Z,9.50
2022-08-05T01:19:46.215Z,8.90
2022-08-05T01:29:56.096Z,8.10
2022-08-05T01:40:05.188Z,7.40
2022-08-05T01:50:17.368Z,8.30
2022-08-05T02:00:30.389Z,8.10
2022-08-05T02:10:39.483Z,8.40
2022-08-05T02:20:44.997Z,7.80
2022-08-05T02:30:54.670Z,8.70
2022-08-05T02:41:14.639Z,8.50
2022-08-05T02:51:28.516Z,6.90
2022-08-05T03:01:58.380Z,6.30
2022-08-05T03:12:05.456Z,6.50
2022-08-05T03:22:16.773Z,5.90
2022-08-05T03:32:30.947Z,6.40
2022-08-05T03:42:41.526Z,6.90
2022-08-05T03:55:50.981Z,6.10
2022-08-05T04:03:28.947Z,5.60
2022-08-05T04:13:50.233Z,5.00
2022-08-05T04:24:06.723Z,6.10
2022-08-05T04:34:31.383Z,6.20
2022-08-05T04:44:40.430Z,6.00
2022-08-05T04:54:49.416Z,5.70
2022-08-05T05:05:01.908Z,6.10
2022-08-05T05:15:11.281Z,4.60
2022-08-05T05:25:18.952Z,5.30
2022-08-05T05:35:26.331Z,4.60
2022-08-05T05:45:33.630Z,5.50
2022-08-05T05:55:51.092Z,5.20
2022-08-05T06:06:06.226Z,5.50
2022-08-05T06:16:29.542Z,5.60
2022-08-05T06:26:39.086Z,4.70
2022-08-05T06:36:57.187Z,4.10
2022-08-05T06:47:05.414Z,3.70
2022-08-05T06:58:03.933Z,5.40
2022-08-05T07:07:49.062Z,4.40
2022-08-05T07:18:07.291Z,5.20
2022-08-05T07:28:17.425Z,5.10
2022-08-05T07:38:32.284Z,5.30
2022-08-05T07:49:04.225Z,5.70
2022-08-05T07:59:11.001Z,5.40
2022-08-05T08:09:19.826Z,5.90
2022-08-05T08:20:21.204Z,6.00
2022-08-05T08:30:05.171Z,6.30
2022-08-05T08:40:22.491Z,6.50
2022-08-05T08:51:21.941Z,6.40
2022-08-05T09:00:57.874Z,6.30
2022-08-05T09:11:06.105Z,6.50
2022-08-05T09:21:20.785Z,6.60
2022-08-05T09:32:42.018Z,6.70
2022-08-05T09:42:24.557Z,7.10
2022-08-05T09:52:44.987Z,6.90
2022-08-05T10:02:53.832Z,5.70
2022-08-05T10:13:02.820Z,5.60
2022-08-05T10:23:34.299Z,6.00
2022-08-05T10:33:52.246Z,6.40
2022-08-05T10:44:02.872Z,6.40
2022-08-05T10:54:28.258Z,6.40
2022-08-05T11:04:46.403Z,6.00
2022-08-05T11:15:19.363Z,5.90
2022-08-05T11:26:04.616Z,5.50
2022-08-05T11:36:07.913Z,5.60
2022-08-05T11:46:32.381Z,6.10
2022-08-05T11:56:44.977Z,6.40
2022-08-05T12:07:00.885Z,5.30
2022-08-05T12:17:57.802Z,6.20
2022-08-05T12:27:53.329Z,6.40
2022-08-05T12:38:02.266Z,6.40
2022-08-05T12:48:27.066Z,6.00
2022-08-05T12:58:53.850Z,6.20
2022-08-05T13:09:08.552Z,6.30
2022-08-05T13:19:16.295Z,5.90
2022-08-05T13:29:37.669Z,5.80
2022-08-05T13:40:16.421Z,6.10
2022-08-05T13:50:16.513Z,5.30
2022-08-05T14:00:26.861Z,5.70
2022-08-05T14:10:37.425Z,6.50
2022-08-05T14:20:47.225Z,5.80
2022-08-05T14:30:55.785Z,5.50
2022-08-05T14:41:06.466Z,5.70
2022-08-05T14:51:16.047Z,5.30
2022-08-05T15:01:48.114Z,5.80
2022-08-05T15:11:52.425Z,5.70
2022-08-05T15:22:01.506Z,5.30
2022-08-05T15:32:08.453Z,5.50
2022-08-05T15:42:54.567Z,5.40
2022-08-05T15:52:53.518Z,5.50
2022-08-05T16:03:02.289Z,6.30
2022-08-05T16:13:08.527Z,5.50
2022-08-05T16:23:15.704Z,5.10
2022-08-05T16:33:22.047Z,5.00
2022-08-05T16:43:30.491Z,5.50
2022-08-05T16:54:04.737Z,6.70
2022-08-05T17:04:06.442Z,5.20
2022-08-05T17:14:13.651Z,5.90
2022-08-05T17:24:45.408Z,6.50
2022-08-05T17:34:53.791Z,7.40
2022-08-05T17:45:18.106Z,6.70
2022-08-05T17:55:37.122Z,7.20
2022-08-05T18:05:48.936Z,7.50
2022-08-05T18:16:00.934Z,8.70
2022-08-05T18:26:09.768Z,8.20
2022-08-05T18:36:19.072Z,8.30
2022-08-05T18:46:28.978Z,9.20
2022-08-05T18:56:36.942Z,9.60
2022-08-05T19:06:45.716Z,9.60
2022-08-05T19:16:53.493Z,13.60
2022-08-05T19:27:00.671Z,10.50
2022-08-05T19:37:11.922Z,11.20
2022-08-05T19:47:19.136Z,13.50
2022-08-05T19:57:47.462Z,12.50
2022-08-05T20:07:58.914Z,11.90
2022-08-05T20:18:10.601Z,12.10
2022-08-05T20:28:35.346Z,14.20
2022-08-05T20:38:54.007Z,13.10
2022-08-05T20:49:06.230Z,16.30
2022-08-05T20:59:26.518Z,14.90
2022-08-05T21:09:34.901Z,14.20
2022-08-05T21:19:46.864Z,15.40
2022-08-05T21:29:55.827Z,14.90
2022-08-05T21:40:05.724Z,15.50
2022-08-05T21:50:12.721Z,17.00
2022-08-05T22:00:20.201Z,30.90
2022-08-05T22:10:28.390Z,21.10
2022-08-05T22:30:56.719Z,16.50
2022-08-05T22:41:09.865Z,19.30
2022-08-05T22:51:22.634Z,17.70
2022-08-05T23:02:03.964Z,15.10
2022-08-05T23:11:56.499Z,15.10
2022-08-05T23:22:03.878Z,15.60
2022-08-05T23:32:12.441Z,15.90
2022-08-05T23:42:29.597Z,15.60
2022-08-05T23:52:49.796Z,16.00
